sensor_id;sensor_type;location;lat;lon;timestamp;P1;durP1;ratioP1;P2;durP2;ratioP2
44476;SDS011;30180;44.788;10.366;2023-07-13T00:01:25;10.32;;;6.88;;
44476;SDS011;30180;44.788;10.366;2023-07-13T00:03:53;8.80;;;6.75;;
44476;SDS011;30180;44.788;10.366;2023-07-13T00:06:22;10.98;;;7.40;;
44476;SDS011;30180;44.788;10.366;2023-07-13T00:08:51;10.23;;;6.78;;
44476;SDS011;30180;44.788;10.366;2023-07-13T00:11:21;10.40;;;6.68;;
44476;SDS011;30180;44.788;10.366;2023-07-13T00:13:49;10.43;;;7.00;;
44476;SDS011;30180;44.788;10.366;2023-07-13T00:16:18;9.65;;;6.90;;
44476;SDS011;30180;44.788;10.366;2023-07-13T00:18:47;10.30;;;6.68;;
44476;SDS011;30180;44.788;10.366;2023-07-13T00:21:15;10.95;;;7.35;;
44476;SDS011;30180;44.788;10.366;2023-07-13T00:23:44;12.10;;;7.05;;
44476;SDS011;30180;44.788;10.366;2023-07-13T00:26:12;10.68;;;6.88;;
44476;SDS011;30180;44.788;10.366;2023-07-13T00:28:42;10.93;;;7.10;;
44476;SDS011;30180;44.788;10.366;2023-07-13T00:31:11;10.10;;;6.65;;
44476;SDS011;30180;44.788;10.366;2023-07-13T00:33:41;10.90;;;7.05;;
44476;SDS011;30180;44.788;10.366;2023-07-13T00:36:10;8.85;;;6.80;;
44476;SDS011;30180;44.788;10.366;2023-07-13T00:38:39;8.95;;;6.78;;
44476;SDS011;30180;44.788;10.366;2023-07-13T00:41:07;10.68;;;6.72;;
44476;SDS011;30180;44.788;10.366;2023-07-13T00:43:36;12.70;;;7.63;;
44476;SDS011;30180;44.788;10.366;2023-07-13T00:46:14;10.00;;;6.35;;
44476;SDS011;30180;44.788;10.366;2023-07-13T00:48:50;10.00;;;6.55;;
44476;SDS011;30180;44.788;10.366;2023-07-13T00:51:21;9.38;;;6.80;;
44476;SDS011;30180;44.788;10.366;2023-07-13T00:53:56;8.55;;;6.22;;
44476;SDS011;30180;44.788;10.366;2023-07-13T00:56:26;9.32;;;6.97;;
44476;SDS011;30180;44.788;10.366;2023-07-13T00:58:56;9.50;;;6.43;;
44476;SDS011;30180;44.788;10.366;2023-07-13T01:01:28;9.02;;;6.13;;
44476;SDS011;30180;44.788;10.366;2023-07-13T01:03:57;10.30;;;6.75;;
44476;SDS011;30180;44.788;10.366;2023-07-13T01:06:25;10.05;;;6.60;;
44476;SDS011;30180;44.788;10.366;2023-07-13T01:08:54;8.73;;;6.32;;
44476;SDS011;30180;44.788;10.366;2023-07-13T01:11:24;9.27;;;6.57;;
44476;SDS011;30180;44.788;10.366;2023-07-13T01:13:55;8.07;;;6.40;;
44476;SDS011;30180;44.788;10.366;2023-07-13T01:16:24;9.20;;;6.32;;
44476;SDS011;30180;44.788;10.366;2023-07-13T01:18:55;8.68;;;6.43;;
44476;SDS011;30180;44.788;10.366;2023-07-13T01:21:28;8.55;;;6.75;;
44476;SDS011;30180;44.788;10.366;2023-07-13T01:23:57;9.60;;;6.28;;
44476;SDS011;30180;44.788;10.366;2023-07-13T01:26:26;9.63;;;6.60;;
44476;SDS011;30180;44.788;10.366;2023-07-13T01:28:54;10.50;;;6.50;;
44476;SDS011;30180;44.788;10.366;2023-07-13T01:31:24;8.05;;;6.13;;
44476;SDS011;30180;44.788;10.366;2023-07-13T01:33:52;10.00;;;6.30;;
44476;SDS011;30180;44.788;10.366;2023-07-13T01:36:21;8.93;;;6.18;;
44476;SDS011;30180;44.788;10.366;2023-07-13T01:38:51;8.95;;;6.07;;
44476;SDS011;30180;44.788;10.366;2023-07-13T01:41:20;9.35;;;6.35;;
44476;SDS011;30180;44.788;10.366;2023-07-13T01:43:48;7.28;;;5.93;;
44476;SDS011;30180;44.788;10.366;2023-07-13T01:46:17;8.90;;;6.35;;
44476;SDS011;30180;44.788;10.366;2023-07-13T01:48:49;8.73;;;6.00;;
44476;SDS011;30180;44.788;10.366;2023-07-13T01:51:18;9.98;;;6.25;;
44476;SDS011;30180;44.788;10.366;2023-07-13T01:53:47;9.52;;;6.25;;
44476;SDS011;30180;44.788;10.366;2023-07-13T01:56:18;7.68;;;5.43;;
44476;SDS011;30180;44.788;10.366;2023-07-13T01:58:47;8.00;;;6.10;;
44476;SDS011;30180;44.788;10.366;2023-07-13T02:01:15;8.63;;;6.43;;
44476;SDS011;30180;44.788;10.366;2023-07-13T02:03:44;8.02;;;6.22;;
44476;SDS011;30180;44.788;10.366;2023-07-13T02:06:13;8.77;;;6.15;;
44476;SDS011;30180;44.788;10.366;2023-07-13T02:08:41;8.07;;;5.80;;
44476;SDS011;30180;44.788;10.366;2023-07-13T02:11:10;9.68;;;6.30;;
44476;SDS011;30180;44.788;10.366;2023-07-13T02:13:40;8.30;;;5.97;;
44476;SDS011;30180;44.788;10.366;2023-07-13T02:16:08;8.68;;;6.15;;
44476;SDS011;30180;44.788;10.366;2023-07-13T02:18:37;7.68;;;5.70;;
44476;SDS011;30180;44.788;10.366;2023-07-13T02:21:05;8.13;;;5.70;;
44476;SDS011;30180;44.788;10.366;2023-07-13T02:23:34;9.25;;;6.20;;
44476;SDS011;30180;44.788;10.366;2023-07-13T02:26:03;7.72;;;5.68;;
44476;SDS011;30180;44.788;10.366;2023-07-13T02:28:31;7.97;;;5.97;;
44476;SDS011;30180;44.788;10.366;2023-07-13T02:31:08;7.75;;;5.80;;
44476;SDS011;30180;44.788;10.366;2023-07-13T02:33:38;7.95;;;6.05;;
44476;SDS011;30180;44.788;10.366;2023-07-13T02:36:06;8.82;;;5.78;;
44476;SDS011;30180;44.788;10.366;2023-07-13T02:38:35;7.53;;;5.43;;
44476;SDS011;30180;44.788;10.366;2023-07-13T02:41:04;7.40;;;5.50;;
44476;SDS011;30180;44.788;10.366;2023-07-13T02:43:34;8.43;;;5.93;;
44476;SDS011;30180;44.788;10.366;2023-07-13T02:46:03;8.48;;;5.78;;
44476;SDS011;30180;44.788;10.366;2023-07-13T02:48:36;8.55;;;6.03;;
44476;SDS011;30180;44.788;10.366;2023-07-13T02:51:06;7.85;;;5.43;;
44476;SDS011;30180;44.788;10.366;2023-07-13T02:53:35;8.15;;;5.88;;
44476;SDS011;30180;44.788;10.366;2023-07-13T02:56:04;7.70;;;5.28;;
44476;SDS011;30180;44.788;10.366;2023-07-13T02:58:34;7.35;;;5.72;;
44476;SDS011;30180;44.788;10.366;2023-07-13T03:01:08;8.23;;;5.63;;
44476;SDS011;30180;44.788;10.366;2023-07-13T03:03:39;7.15;;;5.20;;
44476;SDS011;30180;44.788;10.366;2023-07-13T03:06:07;9.20;;;6.10;;
44476;SDS011;30180;44.788;10.366;2023-07-13T03:08:36;8.57;;;5.50;;
44476;SDS011;30180;44.788;10.366;2023-07-13T03:11:06;7.22;;;5.50;;
44476;SDS011;30180;44.788;10.366;2023-07-13T03:13:35;7.33;;;5.10;;
44476;SDS011;30180;44.788;10.366;2023-07-13T03:16:04;6.40;;;5.18;;
44476;SDS011;30180;44.788;10.366;2023-07-13T03:18:33;8.52;;;5.78;;
44476;SDS011;30180;44.788;10.366;2023-07-13T03:21:05;6.45;;;5.20;;
44476;SDS011;30180;44.788;10.366;2023-07-13T03:23:33;6.88;;;5.38;;
44476;SDS011;30180;44.788;10.366;2023-07-13T03:26:03;6.82;;;5.32;;
44476;SDS011;30180;44.788;10.366;2023-07-13T03:28:33;7.47;;;5.43;;
44476;SDS011;30180;44.788;10.366;2023-07-13T03:31:02;7.20;;;5.10;;
44476;SDS011;30180;44.788;10.366;2023-07-13T03:36:00;7.55;;;5.05;;
44476;SDS011;30180;44.788;10.366;2023-07-13T03:38:31;8.65;;;5.47;;
44476;SDS011;30180;44.788;10.366;2023-07-13T03:41:00;6.47;;;4.82;;
44476;SDS011;30180;44.788;10.366;2023-07-13T03:43:28;7.47;;;5.28;;
44476;SDS011;30180;44.788;10.366;2023-07-13T03:45:57;6.80;;;5.40;;
44476;SDS011;30180;44.788;10.366;2023-07-13T03:48:25;6.97;;;4.97;;
44476;SDS011;30180;44.788;10.366;2023-07-13T03:50:54;6.95;;;5.15;;
44476;SDS011;30180;44.788;10.366;2023-07-13T03:53:22;7.03;;;5.07;;
44476;SDS011;30180;44.788;10.366;2023-07-13T03:55:52;6.32;;;4.90;;
44476;SDS011;30180;44.788;10.366;2023-07-13T03:58:25;6.57;;;5.07;;
44476;SDS011;30180;44.788;10.366;2023-07-13T04:00:55;7.70;;;5.07;;
44476;SDS011;30180;44.788;10.366;2023-07-13T04:03:25;7.00;;;4.93;;
44476;SDS011;30180;44.788;10.366;2023-07-13T04:05:55;6.38;;;4.97;;
44476;SDS011;30180;44.788;10.366;2023-07-13T04:08:27;7.65;;;4.95;;
44476;SDS011;30180;44.788;10.366;2023-07-13T04:10:57;6.88;;;4.70;;
44476;SDS011;30180;44.788;10.366;2023-07-13T04:13:26;6.63;;;4.80;;
44476;SDS011;30180;44.788;10.366;2023-07-13T04:15:55;6.93;;;4.80;;
44476;SDS011;30180;44.788;10.366;2023-07-13T04:18:23;7.57;;;4.93;;
44476;SDS011;30180;44.788;10.366;2023-07-13T04:20:52;6.20;;;4.90;;
44476;SDS011;30180;44.788;10.366;2023-07-13T04:23:20;6.63;;;4.38;;
44476;SDS011;30180;44.788;10.366;2023-07-13T04:25:49;7.30;;;4.90;;
44476;SDS011;30180;44.788;10.366;2023-07-13T04:28:22;7.05;;;4.38;;
44476;SDS011;30180;44.788;10.366;2023-07-13T04:30:51;6.80;;;4.50;;
44476;SDS011;30180;44.788;10.366;2023-07-13T04:33:19;8.05;;;4.40;;
44476;SDS011;30180;44.788;10.366;2023-07-13T04:35:49;6.32;;;4.88;;
44476;SDS011;30180;44.788;10.366;2023-07-13T04:38:23;6.35;;;4.65;;
44476;SDS011;30180;44.788;10.366;2023-07-13T04:40:54;6.75;;;4.93;;
44476;SDS011;30180;44.788;10.366;2023-07-13T04:43:25;5.97;;;4.87;;
44476;SDS011;30180;44.788;10.366;2023-07-13T04:45:54;5.53;;;4.80;;
44476;SDS011;30180;44.788;10.366;2023-07-13T04:48:23;7.88;;;4.90;;
44476;SDS011;30180;44.788;10.366;2023-07-13T04:50:54;7.20;;;4.63;;
44476;SDS011;30180;44.788;10.366;2023-07-13T04:53:24;5.43;;;4.35;;
44476;SDS011;30180;44.788;10.366;2023-07-13T04:55:53;6.38;;;4.55;;
44476;SDS011;30180;44.788;10.366;2023-07-13T04:58:22;5.50;;;3.97;;
44476;SDS011;30180;44.788;10.366;2023-07-13T05:00:52;5.97;;;4.32;;
44476;SDS011;30180;44.788;10.366;2023-07-13T05:03:21;6.97;;;4.80;;
44476;SDS011;30180;44.788;10.366;2023-07-13T05:05:56;7.50;;;4.65;;
44476;SDS011;30180;44.788;10.366;2023-07-13T05:08:25;6.95;;;4.30;;
44476;SDS011;30180;44.788;10.366;2023-07-13T05:10:54;6.55;;;4.18;;
44476;SDS011;30180;44.788;10.366;2023-07-13T05:13:23;6.73;;;5.00;;
44476;SDS011;30180;44.788;10.366;2023-07-13T05:15:57;6.40;;;4.40;;
44476;SDS011;30180;44.788;10.366;2023-07-13T05:18:27;6.93;;;4.50;;
44476;SDS011;30180;44.788;10.366;2023-07-13T05:20:59;6.15;;;4.57;;
44476;SDS011;30180;44.788;10.366;2023-07-13T05:23:29;7.53;;;4.72;;
44476;SDS011;30180;44.788;10.366;2023-07-13T05:25:57;5.90;;;4.47;;
44476;SDS011;30180;44.788;10.366;2023-07-13T05:28:26;4.95;;;3.97;;
44476;SDS011;30180;44.788;10.366;2023-07-13T05:30:57;6.47;;;4.53;;
44476;SDS011;30180;44.788;10.366;2023-07-13T05:33:26;5.03;;;3.97;;
44476;SDS011;30180;44.788;10.366;2023-07-13T05:35:54;7.50;;;4.57;;
44476;SDS011;30180;44.788;10.366;2023-07-13T05:38:23;7.50;;;4.70;;
44476;SDS011;30180;44.788;10.366;2023-07-13T05:40:53;6.18;;;4.40;;
44476;SDS011;30180;44.788;10.366;2023-07-13T05:43:22;5.47;;;3.83;;
44476;SDS011;30180;44.788;10.366;2023-07-13T05:45:52;5.93;;;4.10;;
44476;SDS011;30180;44.788;10.366;2023-07-13T05:48:22;4.47;;;3.70;;
44476;SDS011;30180;44.788;10.366;2023-07-13T05:50:51;6.68;;;4.43;;
44476;SDS011;30180;44.788;10.366;2023-07-13T05:53:20;5.22;;;3.72;;
44476;SDS011;30180;44.788;10.366;2023-07-13T05:55:48;5.57;;;3.47;;
44476;SDS011;30180;44.788;10.366;2023-07-13T05:58:19;6.88;;;4.20;;
44476;SDS011;30180;44.788;10.366;2023-07-13T06:00:48;5.13;;;3.58;;
44476;SDS011;30180;44.788;10.366;2023-07-13T06:03:29;5.47;;;3.47;;
44476;SDS011;30180;44.788;10.366;2023-07-13T06:05:57;5.35;;;3.83;;
44476;SDS011;30180;44.788;10.366;2023-07-13T06:08:26;5.72;;;3.17;;
44476;SDS011;30180;44.788;10.366;2023-07-13T06:11:01;5.53;;;3.38;;
44476;SDS011;30180;44.788;10.366;2023-07-13T06:13:30;5.50;;;3.67;;
44476;SDS011;30180;44.788;10.366;2023-07-13T06:15:58;6.25;;;3.47;;
44476;SDS011;30180;44.788;10.366;2023-07-13T06:18:28;4.85;;;3.45;;
44476;SDS011;30180;44.788;10.366;2023-07-13T06:20:56;5.93;;;3.40;;
44476;SDS011;30180;44.788;10.366;2023-07-13T06:23:25;4.68;;;3.50;;
44476;SDS011;30180;44.788;10.366;2023-07-13T06:25:53;7.00;;;3.08;;
44476;SDS011;30180;44.788;10.366;2023-07-13T06:28:23;5.32;;;3.50;;
44476;SDS011;30180;44.788;10.366;2023-07-13T06:30:51;5.68;;;3.60;;
44476;SDS011;30180;44.788;10.366;2023-07-13T06:33:19;5.18;;;3.60;;
44476;SDS011;30180;44.788;10.366;2023-07-13T06:35:49;4.93;;;3.33;;
44476;SDS011;30180;44.788;10.366;2023-07-13T06:38:18;4.78;;;3.30;;
44476;SDS011;30180;44.788;10.366;2023-07-13T06:40:46;4.57;;;3.20;;
44476;SDS011;30180;44.788;10.366;2023-07-13T06:43:15;4.75;;;3.20;;
44476;SDS011;30180;44.788;10.366;2023-07-13T06:45:45;4.55;;;3.15;;
44476;SDS011;30180;44.788;10.366;2023-07-13T06:48:16;5.07;;;3.40;;
44476;SDS011;30180;44.788;10.366;2023-07-13T06:50:46;5.43;;;3.38;;
44476;SDS011;30180;44.788;10.366;2023-07-13T06:53:17;5.50;;;3.80;;
44476;SDS011;30180;44.788;10.366;2023-07-13T06:58:15;4.80;;;2.97;;
44476;SDS011;30180;44.788;10.366;2023-07-13T07:00:45;4.78;;;3.42;;
44476;SDS011;30180;44.788;10.366;2023-07-13T07:03:14;5.40;;;3.15;;
44476;SDS011;30180;44.788;10.366;2023-07-13T07:05:42;5.78;;;3.30;;
44476;SDS011;30180;44.788;10.366;2023-07-13T07:08:11;5.05;;;2.85;;
44476;SDS011;30180;44.788;10.366;2023-07-13T07:10:41;4.40;;;2.80;;
44476;SDS011;30180;44.788;10.366;2023-07-13T07:13:09;4.80;;;2.95;;
44476;SDS011;30180;44.788;10.366;2023-07-13T07:15:38;5.68;;;3.40;;
44476;SDS011;30180;44.788;10.366;2023-07-13T07:18:06;5.47;;;3.08;;
44476;SDS011;30180;44.788;10.366;2023-07-13T07:20:35;6.47;;;3.33;;
44476;SDS011;30180;44.788;10.366;2023-07-13T07:23:04;5.18;;;3.10;;
44476;SDS011;30180;44.788;10.366;2023-07-13T07:25:32;5.10;;;3.17;;
44476;SDS011;30180;44.788;10.366;2023-07-13T07:28:05;4.53;;;3.08;;
44476;SDS011;30180;44.788;10.366;2023-07-13T07:30:36;4.75;;;2.83;;
44476;SDS011;30180;44.788;10.366;2023-07-13T07:33:07;5.45;;;3.17;;
44476;SDS011;30180;44.788;10.366;2023-07-13T07:35:36;4.20;;;2.53;;
44476;SDS011;30180;44.788;10.366;2023-07-13T07:38:24;6.03;;;3.10;;
44476;SDS011;30180;44.788;10.366;2023-07-13T07:40:53;4.32;;;2.90;;
44476;SDS011;30180;44.788;10.366;2023-07-13T07:43:25;5.68;;;3.47;;
44476;SDS011;30180;44.788;10.366;2023-07-13T07:45:54;4.90;;;3.00;;
44476;SDS011;30180;44.788;10.366;2023-07-13T07:48:22;4.00;;;2.80;;
44476;SDS011;30180;44.788;10.366;2023-07-13T07:50:51;5.15;;;3.05;;
44476;SDS011;30180;44.788;10.366;2023-07-13T07:53:20;3.53;;;2.50;;
44476;SDS011;30180;44.788;10.366;2023-07-13T07:55:49;4.32;;;2.90;;
44476;SDS011;30180;44.788;10.366;2023-07-13T07:58:20;4.32;;;2.95;;
44476;SDS011;30180;44.788;10.366;2023-07-13T08:00:53;4.43;;;2.78;;
44476;SDS011;30180;44.788;10.366;2023-07-13T08:03:24;4.57;;;2.90;;
44476;SDS011;30180;44.788;10.366;2023-07-13T08:05:56;3.25;;;2.50;;
44476;SDS011;30180;44.788;10.366;2023-07-13T08:08:44;3.45;;;2.75;;
44476;SDS011;30180;44.788;10.366;2023-07-13T08:11:13;4.80;;;2.92;;
44476;SDS011;30180;44.788;10.366;2023-07-13T08:13:44;4.45;;;2.97;;
44476;SDS011;30180;44.788;10.366;2023-07-13T08:16:14;4.90;;;2.70;;
44476;SDS011;30180;44.788;10.366;2023-07-13T08:18:42;4.63;;;2.95;;
44476;SDS011;30180;44.788;10.366;2023-07-13T08:21:10;4.28;;;2.80;;
44476;SDS011;30180;44.788;10.366;2023-07-13T08:23:39;4.18;;;2.97;;
44476;SDS011;30180;44.788;10.366;2023-07-13T08:26:08;4.03;;;2.75;;
44476;SDS011;30180;44.788;10.366;2023-07-13T08:28:36;3.83;;;2.60;;
44476;SDS011;30180;44.788;10.366;2023-07-13T08:31:05;3.58;;;2.50;;
44476;SDS011;30180;44.788;10.366;2023-07-13T08:33:36;4.25;;;2.60;;
44476;SDS011;30180;44.788;10.366;2023-07-13T08:36:07;4.97;;;2.70;;
44476;SDS011;30180;44.788;10.366;2023-07-13T08:38:35;4.80;;;2.83;;
44476;SDS011;30180;44.788;10.366;2023-07-13T08:41:09;4.93;;;3.10;;
44476;SDS011;30180;44.788;10.366;2023-07-13T08:43:40;6.70;;;3.05;;
44476;SDS011;30180;44.788;10.366;2023-07-13T08:46:12;4.00;;;3.10;;
44476;SDS011;30180;44.788;10.366;2023-07-13T08:48:47;4.07;;;2.75;;
44476;SDS011;30180;44.788;10.366;2023-07-13T08:51:32;4.05;;;2.58;;
44476;SDS011;30180;44.788;10.366;2023-07-13T08:54:08;4.10;;;3.00;;
44476;SDS011;30180;44.788;10.366;2023-07-13T08:56:45;4.15;;;2.63;;
44476;SDS011;30180;44.788;10.366;2023-07-13T08:59:15;5.25;;;2.83;;
44476;SDS011;30180;44.788;10.366;2023-07-13T09:01:48;5.13;;;3.20;;
44476;SDS011;30180;44.788;10.366;2023-07-13T09:04:41;3.90;;;2.60;;
44476;SDS011;30180;44.788;10.366;2023-07-13T09:07:14;5.47;;;3.20;;
44476;SDS011;30180;44.788;10.366;2023-07-13T09:09:55;5.32;;;3.15;;
44476;SDS011;30180;44.788;10.366;2023-07-13T09:12:35;3.80;;;2.75;;
44476;SDS011;30180;44.788;10.366;2023-07-13T09:15:24;4.03;;;2.47;;
44476;SDS011;30180;44.788;10.366;2023-07-13T09:17:59;4.65;;;2.53;;
44476;SDS011;30180;44.788;10.366;2023-07-13T09:20:34;4.93;;;2.95;;
44476;SDS011;30180;44.788;10.366;2023-07-13T09:23:05;3.67;;;2.60;;
44476;SDS011;30180;44.788;10.366;2023-07-13T09:25:40;5.55;;;2.90;;
44476;SDS011;30180;44.788;10.366;2023-07-13T09:28:15;4.43;;;2.67;;
44476;SDS011;30180;44.788;10.366;2023-07-13T09:30:50;4.25;;;2.70;;
44476;SDS011;30180;44.788;10.366;2023-07-13T09:33:21;4.63;;;3.03;;
44476;SDS011;30180;44.788;10.366;2023-07-13T09:35:51;4.25;;;2.70;;
44476;SDS011;30180;44.788;10.366;2023-07-13T09:38:19;3.57;;;2.67;;
44476;SDS011;30180;44.788;10.366;2023-07-13T09:40:58;4.57;;;2.70;;
44476;SDS011;30180;44.788;10.366;2023-07-13T09:43:31;4.53;;;2.90;;
44476;SDS011;30180;44.788;10.366;2023-07-13T09:46:00;4.63;;;2.70;;
44476;SDS011;30180;44.788;10.366;2023-07-13T09:48:33;4.82;;;2.60;;
44476;SDS011;30180;44.788;10.366;2023-07-13T09:51:10;3.38;;;2.50;;
44476;SDS011;30180;44.788;10.366;2023-07-13T09:53:42;3.92;;;2.70;;
44476;SDS011;30180;44.788;10.366;2023-07-13T09:56:19;3.53;;;2.38;;
44476;SDS011;30180;44.788;10.366;2023-07-13T09:58:47;4.38;;;2.60;;
44476;SDS011;30180;44.788;10.366;2023-07-13T10:01:16;4.20;;;2.40;;
44476;SDS011;30180;44.788;10.366;2023-07-13T10:04:00;3.97;;;2.80;;
44476;SDS011;30180;44.788;10.366;2023-07-13T10:06:31;4.63;;;2.60;;
44476;SDS011;30180;44.788;10.366;2023-07-13T10:08:59;3.47;;;2.60;;
44476;SDS011;30180;44.788;10.366;2023-07-13T10:11:28;4.30;;;2.40;;
44476;SDS011;30180;44.788;10.366;2023-07-13T10:13:58;4.30;;;2.30;;
44476;SDS011;30180;44.788;10.366;2023-07-13T10:16:29;4.07;;;2.50;;
44476;SDS011;30180;44.788;10.366;2023-07-13T10:19:02;3.95;;;2.40;;
44476;SDS011;30180;44.788;10.366;2023-07-13T10:21:35;4.03;;;2.58;;
44476;SDS011;30180;44.788;10.366;2023-07-13T10:24:10;3.72;;;2.53;;
44476;SDS011;30180;44.788;10.366;2023-07-13T10:26:45;4.15;;;2.30;;
44476;SDS011;30180;44.788;10.366;2023-07-13T10:29:19;3.67;;;2.55;;
44476;SDS011;30180;44.788;10.366;2023-07-13T10:31:50;4.60;;;2.45;;
44476;SDS011;30180;44.788;10.366;2023-07-13T10:34:18;3.78;;;2.33;;
44476;SDS011;30180;44.788;10.366;2023-07-13T10:36:49;3.60;;;2.30;;
44476;SDS011;30180;44.788;10.366;2023-07-13T10:39:17;4.07;;;2.57;;
44476;SDS011;30180;44.788;10.366;2023-07-13T10:41:50;3.90;;;2.33;;
44476;SDS011;30180;44.788;10.366;2023-07-13T10:44:23;4.03;;;2.60;;
44476;SDS011;30180;44.788;10.366;2023-07-13T10:46:56;4.65;;;2.55;;
44476;SDS011;30180;44.788;10.366;2023-07-13T10:49:26;4.57;;;2.53;;
44476;SDS011;30180;44.788;10.366;2023-07-13T10:51:58;3.35;;;2.25;;
44476;SDS011;30180;44.788;10.366;2023-07-13T10:54:27;3.63;;;2.40;;
44476;SDS011;30180;44.788;10.366;2023-07-13T10:57:16;3.50;;;2.20;;
44476;SDS011;30180;44.788;10.366;2023-07-13T10:59:46;3.67;;;2.42;;
44476;SDS011;30180;44.788;10.366;2023-07-13T11:02:24;4.03;;;2.42;;
44476;SDS011;30180;44.788;10.366;2023-07-13T11:04:56;5.03;;;2.53;;
44476;SDS011;30180;44.788;10.366;2023-07-13T11:07:27;2.90;;;2.20;;
44476;SDS011;30180;44.788;10.366;2023-07-13T11:09:59;4.35;;;2.30;;
44476;SDS011;30180;44.788;10.366;2023-07-13T11:12:50;3.25;;;2.35;;
44476;SDS011;30180;44.788;10.366;2023-07-13T11:15:27;3.58;;;2.20;;
44476;SDS011;30180;44.788;10.366;2023-07-13T11:18:02;4.00;;;2.30;;
44476;SDS011;30180;44.788;10.366;2023-07-13T11:20:36;3.65;;;2.28;;
44476;SDS011;30180;44.788;10.366;2023-07-13T11:26:00;4.55;;;2.10;;
44476;SDS011;30180;44.788;10.366;2023-07-13T11:28:30;3.85;;;1.90;;
44476;SDS011;30180;44.788;10.366;2023-07-13T11:31:02;5.30;;;2.20;;
44476;SDS011;30180;44.788;10.366;2023-07-13T11:36:31;3.25;;;2.08;;
44476;SDS011;30180;44.788;10.366;2023-07-13T11:39:13;3.35;;;2.25;;
44476;SDS011;30180;44.788;10.366;2023-07-13T11:41:46;4.07;;;2.30;;
44476;SDS011;30180;44.788;10.366;2023-07-13T11:44:19;4.57;;;2.60;;
44476;SDS011;30180;44.788;10.366;2023-07-13T11:46:51;4.32;;;2.50;;
44476;SDS011;30180;44.788;10.366;2023-07-13T11:49:22;3.20;;;2.20;;
44476;SDS011;30180;44.788;10.366;2023-07-13T11:51:53;4.13;;;2.47;;
44476;SDS011;30180;44.788;10.366;2023-07-13T11:54:25;5.05;;;2.40;;
44476;SDS011;30180;44.788;10.366;2023-07-13T11:56:57;5.20;;;2.67;;
44476;SDS011;30180;44.788;10.366;2023-07-13T11:59:29;3.72;;;2.30;;
44476;SDS011;30180;44.788;10.366;2023-07-13T12:01:59;2.90;;;2.10;;
44476;SDS011;30180;44.788;10.366;2023-07-13T12:04:29;6.10;;;2.20;;
44476;SDS011;30180;44.788;10.366;2023-07-13T12:07:03;3.67;;;2.30;;
44476;SDS011;30180;44.788;10.366;2023-07-13T12:09:36;4.32;;;2.53;;
44476;SDS011;30180;44.788;10.366;2023-07-13T12:12:10;3.75;;;2.10;;
44476;SDS011;30180;44.788;10.366;2023-07-13T12:14:40;4.68;;;2.63;;
44476;SDS011;30180;44.788;10.366;2023-07-13T12:17:09;3.72;;;2.20;;
44476;SDS011;30180;44.788;10.366;2023-07-13T12:19:44;4.22;;;2.30;;
44476;SDS011;30180;44.788;10.366;2023-07-13T12:22:14;3.17;;;2.03;;
44476;SDS011;30180;44.788;10.366;2023-07-13T12:24:47;3.60;;;2.35;;
44476;SDS011;30180;44.788;10.366;2023-07-13T12:29:50;4.53;;;2.30;;
44476;SDS011;30180;44.788;10.366;2023-07-13T12:34:52;3.53;;;2.05;;
44476;SDS011;30180;44.788;10.366;2023-07-13T12:37:22;3.20;;;2.30;;
44476;SDS011;30180;44.788;10.366;2023-07-13T12:39:53;3.50;;;2.30;;
44476;SDS011;30180;44.788;10.366;2023-07-13T12:42:22;3.20;;;2.10;;
44476;SDS011;30180;44.788;10.366;2023-07-13T12:44:56;3.25;;;2.17;;
44476;SDS011;30180;44.788;10.366;2023-07-13T12:47:28;5.18;;;2.47;;
44476;SDS011;30180;44.788;10.366;2023-07-13T12:49:58;2.95;;;2.10;;
44476;SDS011;30180;44.788;10.366;2023-07-13T12:52:29;4.13;;;2.42;;
44476;SDS011;30180;44.788;10.366;2023-07-13T12:55:03;4.90;;;2.33;;
44476;SDS011;30180;44.788;10.366;2023-07-13T12:57:40;3.97;;;2.53;;
44476;SDS011;30180;44.788;10.366;2023-07-13T13:00:20;4.05;;;2.30;;
44476;SDS011;30180;44.788;10.366;2023-07-13T13:02:52;3.47;;;2.28;;
44476;SDS011;30180;44.788;10.366;2023-07-13T13:05:41;3.38;;;2.30;;
44476;SDS011;30180;44.788;10.366;2023-07-13T13:10:41;3.65;;;2.33;;
44476;SDS011;30180;44.788;10.366;2023-07-13T13:13:10;3.60;;;2.17;;
44476;SDS011;30180;44.788;10.366;2023-07-13T13:15:38;4.93;;;2.42;;
44476;SDS011;30180;44.788;10.366;2023-07-13T13:18:11;4.85;;;2.33;;
44476;SDS011;30180;44.788;10.366;2023-07-13T13:20:44;4.60;;;2.33;;
44476;SDS011;30180;44.788;10.366;2023-07-13T13:23:13;4.65;;;2.70;;
44476;SDS011;30180;44.788;10.366;2023-07-13T13:25:45;3.83;;;2.30;;
44476;SDS011;30180;44.788;10.366;2023-07-13T13:28:16;4.30;;;2.53;;
44476;SDS011;30180;44.788;10.366;2023-07-13T13:30:47;3.15;;;2.10;;
44476;SDS011;30180;44.788;10.366;2023-07-13T13:33:18;4.10;;;2.20;;
44476;SDS011;30180;44.788;10.366;2023-07-13T13:35:48;4.25;;;2.47;;
44476;SDS011;30180;44.788;10.366;2023-07-13T13:38:17;3.50;;;2.28;;
44476;SDS011;30180;44.788;10.366;2023-07-13T13:40:49;4.22;;;2.45;;
44476;SDS011;30180;44.788;10.366;2023-07-13T13:43:17;4.55;;;2.50;;
44476;SDS011;30180;44.788;10.366;2023-07-13T13:45:46;4.50;;;2.30;;
44476;SDS011;30180;44.788;10.366;2023-07-13T13:48:15;2.78;;;2.03;;
44476;SDS011;30180;44.788;10.366;2023-07-13T13:50:46;5.13;;;2.30;;
44476;SDS011;30180;44.788;10.366;2023-07-13T13:53:15;4.68;;;2.13;;
44476;SDS011;30180;44.788;10.366;2023-07-13T13:55:43;3.65;;;2.20;;
44476;SDS011;30180;44.788;10.366;2023-07-13T13:58:14;3.50;;;2.30;;
44476;SDS011;30180;44.788;10.366;2023-07-13T14:00:43;4.18;;;2.28;;
44476;SDS011;30180;44.788;10.366;2023-07-13T14:03:13;4.85;;;2.38;;
44476;SDS011;30180;44.788;10.366;2023-07-13T14:05:44;4.00;;;2.40;;
44476;SDS011;30180;44.788;10.366;2023-07-13T14:08:14;3.45;;;2.30;;
44476;SDS011;30180;44.788;10.366;2023-07-13T14:10:43;5.40;;;2.40;;
44476;SDS011;30180;44.788;10.366;2023-07-13T14:13:17;3.35;;;2.20;;
44476;SDS011;30180;44.788;10.366;2023-07-13T14:15:47;4.85;;;2.38;;
44476;SDS011;30180;44.788;10.366;2023-07-13T14:18:16;3.70;;;2.15;;
44476;SDS011;30180;44.788;10.366;2023-07-13T14:20:45;3.28;;;2.17;;
44476;SDS011;30180;44.788;10.366;2023-07-13T14:23:14;3.83;;;2.80;;
44476;SDS011;30180;44.788;10.366;2023-07-13T14:25:45;3.28;;;2.00;;
44476;SDS011;30180;44.788;10.366;2023-07-13T14:28:23;3.78;;;2.40;;
44476;SDS011;30180;44.788;10.366;2023-07-13T14:30:53;4.25;;;2.40;;
44476;SDS011;30180;44.788;10.366;2023-07-13T14:33:22;5.82;;;2.72;;
44476;SDS011;30180;44.788;10.366;2023-07-13T14:35:51;3.60;;;2.30;;
44476;SDS011;30180;44.788;10.366;2023-07-13T14:38:19;5.68;;;3.20;;
44476;SDS011;30180;44.788;10.366;2023-07-13T14:40:49;3.95;;;2.30;;
44476;SDS011;30180;44.788;10.366;2023-07-13T14:43:17;4.28;;;2.45;;
44476;SDS011;30180;44.788;10.366;2023-07-13T14:45:48;4.07;;;2.35;;
44476;SDS011;30180;44.788;10.366;2023-07-13T14:48:18;3.00;;;2.40;;
44476;SDS011;30180;44.788;10.366;2023-07-13T14:50:49;3.63;;;2.38;;
44476;SDS011;30180;44.788;10.366;2023-07-13T14:53:20;3.67;;;2.35;;
44476;SDS011;30180;44.788;10.366;2023-07-13T14:55:49;3.55;;;2.40;;
44476;SDS011;30180;44.788;10.366;2023-07-13T14:58:18;3.20;;;2.20;;
44476;SDS011;30180;44.788;10.366;2023-07-13T15:00:48;3.42;;;2.20;;
44476;SDS011;30180;44.788;10.366;2023-07-13T15:03:21;3.53;;;2.47;;
44476;SDS011;30180;44.788;10.366;2023-07-13T15:05:52;3.58;;;2.25;;
44476;SDS011;30180;44.788;10.366;2023-07-13T15:08:21;4.47;;;2.40;;
44476;SDS011;30180;44.788;10.366;2023-07-13T15:10:50;4.72;;;2.42;;
44476;SDS011;30180;44.788;10.366;2023-07-13T15:13:19;3.53;;;2.10;;